sensor_id;sensor_type;location;lat;lon;timestamp;P1;durP1;ratioP1;P2;durP2;ratioP2
297;SDS011;133;49.626;9.680;2022-11-15T00:00:11;5.50;;;5.20;;
297;SDS011;133;49.626;9.680;2022-11-15T00:02:37;6.80;;;5.20;;
297;SDS011;133;49.626;9.680;2022-11-15T00:05:02;7.97;;;4.70;;
297;SDS011;133;49.626;9.680;2022-11-15T00:07:28;5.77;;;4.80;;
297;SDS011;133;49.626;9.680;2022-11-15T00:09:54;4.83;;;4.57;;
297;SDS011;133;49.626;9.680;2022-11-15T00:12:19;9.00;;;4.83;;
297;SDS011;133;49.626;9.680;2022-11-15T00:14:45;6.73;;;5.00;;
297;SDS011;133;49.626;9.680;2022-11-15T00:17:11;5.50;;;5.00;;
297;SDS011;133;49.626;9.680;2022-11-15T00:19:36;6.90;;;5.17;;
297;SDS011;133;49.626;9.680;2022-11-15T00:22:02;4.93;;;4.50;;
297;SDS011;133;49.626;9.680;2022-11-15T00:24:27;5.43;;;4.47;;
297;SDS011;133;49.626;9.680;2022-11-15T00:26:53;4.20;;;4.00;;
297;SDS011;133;49.626;9.680;2022-11-15T00:29:18;5.00;;;4.30;;
297;SDS011;133;49.626;9.680;2022-11-15T00:31:44;4.37;;;4.07;;
297;SDS011;133;49.626;9.680;2022-11-15T00:34:10;7.00;;;4.53;;
297;SDS011;133;49.626;9.680;2022-11-15T00:36:35;8.47;;;4.60;;
297;SDS011;133;49.626;9.680;2022-11-15T00:39:04;5.10;;;4.80;;
297;SDS011;133;49.626;9.680;2022-11-15T00:41:30;4.73;;;4.43;;
297;SDS011;133;49.626;9.680;2022-11-15T00:43:56;5.27;;;4.93;;
297;SDS011;133;49.626;9.680;2022-11-15T00:46:22;6.43;;;5.13;;
297;SDS011;133;49.626;9.680;2022-11-15T00:48:47;6.70;;;4.97;;
297;SDS011;133;49.626;9.680;2022-11-15T00:51:13;5.13;;;4.47;;
297;SDS011;133;49.626;9.680;2022-11-15T00:53:38;6.00;;;4.60;;
297;SDS011;133;49.626;9.680;2022-11-15T00:56:04;4.77;;;4.30;;
297;SDS011;133;49.626;9.680;2022-11-15T00:58:30;4.87;;;4.50;;
297;SDS011;133;49.626;9.680;2022-11-15T01:00:56;5.57;;;4.70;;
297;SDS011;133;49.626;9.680;2022-11-15T01:03:21;5.13;;;4.77;;
297;SDS011;133;49.626;9.680;2022-11-15T01:05:47;5.70;;;4.10;;
297;SDS011;133;49.626;9.680;2022-11-15T01:08:13;4.77;;;3.90;;
297;SDS011;133;49.626;9.680;2022-11-15T01:10:40;4.70;;;4.40;;
297;SDS011;133;49.626;9.680;2022-11-15T01:13:06;4.27;;;3.70;;
297;SDS011;133;49.626;9.680;2022-11-15T01:15:31;4.30;;;3.90;;
297;SDS011;133;49.626;9.680;2022-11-15T01:17:57;8.90;;;3.80;;
297;SDS011;133;49.626;9.680;2022-11-15T01:20:23;4.50;;;4.23;;
297;SDS011;133;49.626;9.680;2022-11-15T01:22:48;6.40;;;5.03;;
297;SDS011;133;49.626;9.680;2022-11-15T01:25:14;6.50;;;4.90;;
297;SDS011;133;49.626;9.680;2022-11-15T01:27:39;5.70;;;4.53;;
297;SDS011;133;49.626;9.680;2022-11-15T01:30:05;5.70;;;4.60;;
297;SDS011;133;49.626;9.680;2022-11-15T01:32:31;6.40;;;4.10;;
297;SDS011;133;49.626;9.680;2022-11-15T01:34:57;4.77;;;4.20;;
297;SDS011;133;49.626;9.680;2022-11-15T01:37:22;4.70;;;4.40;;
297;SDS011;133;49.626;9.680;2022-11-15T01:39:48;8.10;;;5.73;;
297;SDS011;133;49.626;9.680;2022-11-15T01:42:14;7.60;;;5.20;;
297;SDS011;133;49.626;9.680;2022-11-15T01:47:12;5.67;;;4.23;;
297;SDS011;133;49.626;9.680;2022-11-15T01:49:55;6.90;;;4.20;;
297;SDS011;133;49.626;9.680;2022-11-15T01:52:31;6.70;;;4.43;;
297;SDS011;133;49.626;9.680;2022-11-15T01:57:43;4.53;;;4.27;;
297;SDS011;133;49.626;9.680;2022-11-15T02:00:14;6.10;;;4.50;;
297;SDS011;133;49.626;9.680;2022-11-15T02:02:40;7.13;;;4.37;;
297;SDS011;133;49.626;9.680;2022-11-15T02:05:06;5.40;;;5.10;;
297;SDS011;133;49.626;9.680;2022-11-15T02:07:32;5.53;;;4.93;;
297;SDS011;133;49.626;9.680;2022-11-15T02:10:01;7.37;;;4.50;;
297;SDS011;133;49.626;9.680;2022-11-15T02:12:31;6.07;;;4.50;;
297;SDS011;133;49.626;9.680;2022-11-15T02:14:57;9.13;;;5.00;;
297;SDS011;133;49.626;9.680;2022-11-15T02:22:30;5.23;;;3.83;;
297;SDS011;133;49.626;9.680;2022-11-15T02:30:40;5.63;;;4.80;;
297;SDS011;133;49.626;9.680;2022-11-15T02:35:57;6.97;;;5.80;;
297;SDS011;133;49.626;9.680;2022-11-15T02:41:11;7.77;;;6.37;;
297;SDS011;133;49.626;9.680;2022-11-15T02:43:46;7.77;;;5.30;;
297;SDS011;133;49.626;9.680;2022-11-15T02:47:15;5.40;;;5.10;;
297;SDS011;133;49.626;9.680;2022-11-15T02:49:50;5.80;;;5.43;;
297;SDS011;133;49.626;9.680;2022-11-15T02:52:19;5.90;;;4.90;;
297;SDS011;133;49.626;9.680;2022-11-15T02:54:53;7.50;;;5.97;;
297;SDS011;133;49.626;9.680;2022-11-15T02:57:22;9.03;;;6.10;;
297;SDS011;133;49.626;9.680;2022-11-15T03:00:12;8.33;;;6.27;;
297;SDS011;133;49.626;9.680;2022-11-15T03:08:10;5.50;;;5.20;;
297;SDS011;133;49.626;9.680;2022-11-15T03:13:26;4.47;;;4.17;;
297;SDS011;133;49.626;9.680;2022-11-15T03:16:06;6.13;;;4.60;;
297;SDS011;133;49.626;9.680;2022-11-15T03:18:43;4.10;;;3.93;;
297;SDS011;133;49.626;9.680;2022-11-15T03:21:14;5.73;;;4.37;;
297;SDS011;133;49.626;9.680;2022-11-15T03:23:43;5.17;;;3.77;;
297;SDS011;133;49.626;9.680;2022-11-15T03:26:12;5.23;;;4.03;;
297;SDS011;133;49.626;9.680;2022-11-15T03:28:41;4.30;;;4.10;;
297;SDS011;133;49.626;9.680;2022-11-15T03:31:10;6.77;;;4.40;;
297;SDS011;133;49.626;9.680;2022-11-15T03:33:57;4.43;;;4.13;;
297;SDS011;133;49.626;9.680;2022-11-15T03:36:24;6.23;;;4.40;;
297;SDS011;133;49.626;9.680;2022-11-15T03:38:53;4.40;;;4.10;;
297;SDS011;133;49.626;9.680;2022-11-15T03:41:22;4.73;;;4.30;;
297;SDS011;133;49.626;9.680;2022-11-15T03:44:40;8.07;;;6.10;;
297;SDS011;133;49.626;9.680;2022-11-15T03:47:30;6.07;;;5.60;;
297;SDS011;133;49.626;9.680;2022-11-15T03:50:13;5.93;;;5.63;;
297;SDS011;133;49.626;9.680;2022-11-15T03:52:47;6.10;;;5.30;;
297;SDS011;133;49.626;9.680;2022-11-15T03:55:18;4.93;;;4.63;;
297;SDS011;133;49.626;9.680;2022-11-15T03:57:46;4.57;;;4.23;;
297;SDS011;133;49.626;9.680;2022-11-15T04:00:14;7.70;;;4.30;;
297;SDS011;133;49.626;9.680;2022-11-15T04:02:40;6.00;;;5.40;;
297;SDS011;133;49.626;9.680;2022-11-15T04:05:06;7.97;;;5.60;;
297;SDS011;133;49.626;9.680;2022-11-15T04:07:32;6.07;;;5.27;;
297;SDS011;133;49.626;9.680;2022-11-15T04:09:58;7.00;;;5.53;;
297;SDS011;133;49.626;9.680;2022-11-15T04:12:34;5.80;;;5.30;;
297;SDS011;133;49.626;9.680;2022-11-15T04:15:03;6.57;;;5.40;;
297;SDS011;133;49.626;9.680;2022-11-15T04:17:37;7.43;;;5.00;;
297;SDS011;133;49.626;9.680;2022-11-15T04:20:16;5.77;;;4.90;;
297;SDS011;133;49.626;9.680;2022-11-15T04:23:04;6.30;;;5.50;;
297;SDS011;133;49.626;9.680;2022-11-15T04:25:50;5.77;;;4.83;;
297;SDS011;133;49.626;9.680;2022-11-15T04:28:18;6.07;;;5.50;;
297;SDS011;133;49.626;9.680;2022-11-15T04:30:45;6.73;;;5.60;;
297;SDS011;133;49.626;9.680;2022-11-15T04:33:10;5.90;;;5.33;;
297;SDS011;133;49.626;9.680;2022-11-15T04:35:36;5.50;;;4.50;;
297;SDS011;133;49.626;9.680;2022-11-15T04:38:02;7.27;;;4.83;;
297;SDS011;133;49.626;9.680;2022-11-15T04:40:29;7.87;;;5.20;;
297;SDS011;133;49.626;9.680;2022-11-15T04:42:55;5.37;;;5.00;;
297;SDS011;133;49.626;9.680;2022-11-15T04:45:21;4.73;;;4.43;;
297;SDS011;133;49.626;9.680;2022-11-15T04:47:46;7.17;;;4.70;;
297;SDS011;133;49.626;9.680;2022-11-15T04:50:13;5.80;;;5.20;;
297;SDS011;133;49.626;9.680;2022-11-15T04:52:43;5.60;;;4.87;;
297;SDS011;133;49.626;9.680;2022-11-15T04:55:15;5.80;;;4.80;;
297;SDS011;133;49.626;9.680;2022-11-15T04:57:40;4.67;;;4.10;;
297;SDS011;133;49.626;9.680;2022-11-15T05:00:08;6.10;;;4.73;;
297;SDS011;133;49.626;9.680;2022-11-15T05:02:35;4.77;;;4.50;;
297;SDS011;133;49.626;9.680;2022-11-15T05:05:20;6.13;;;4.90;;
297;SDS011;133;49.626;9.680;2022-11-15T05:07:46;5.20;;;4.63;;
297;SDS011;133;49.626;9.680;2022-11-15T05:10:11;7.57;;;5.23;;
297;SDS011;133;49.626;9.680;2022-11-15T05:12:37;6.20;;;5.50;;
297;SDS011;133;49.626;9.680;2022-11-15T05:15:03;8.77;;;5.00;;
297;SDS011;133;49.626;9.680;2022-11-15T05:17:31;4.37;;;4.10;;
297;SDS011;133;49.626;9.680;2022-11-15T05:19:57;4.87;;;4.60;;
297;SDS011;133;49.626;9.680;2022-11-15T05:22:22;6.07;;;5.00;;
297;SDS011;133;49.626;9.680;2022-11-15T05:24:48;6.07;;;4.70;;
297;SDS011;133;49.626;9.680;2022-11-15T05:27:14;5.77;;;4.87;;
297;SDS011;133;49.626;9.680;2022-11-15T05:29:39;5.53;;;4.80;;
297;SDS011;133;49.626;9.680;2022-11-15T05:32:05;5.43;;;4.80;;
297;SDS011;133;49.626;9.680;2022-11-15T05:34:33;5.43;;;4.73;;
297;SDS011;133;49.626;9.680;2022-11-15T05:36:59;5.20;;;4.67;;
297;SDS011;133;49.626;9.680;2022-11-15T05:39:25;5.83;;;4.70;;
297;SDS011;133;49.626;9.680;2022-11-15T05:41:52;6.10;;;4.97;;
297;SDS011;133;49.626;9.680;2022-11-15T05:44:25;6.27;;;4.47;;
297;SDS011;133;49.626;9.680;2022-11-15T05:46:51;7.73;;;4.70;;
297;SDS011;133;49.626;9.680;2022-11-15T05:49:22;7.50;;;6.37;;
297;SDS011;133;49.626;9.680;2022-11-15T05:51:51;6.13;;;4.93;;
297;SDS011;133;49.626;9.680;2022-11-15T05:54:17;5.63;;;4.83;;
297;SDS011;133;49.626;9.680;2022-11-15T05:56:46;5.73;;;5.43;;
297;SDS011;133;49.626;9.680;2022-11-15T05:59:12;5.40;;;5.10;;
297;SDS011;133;49.626;9.680;2022-11-15T06:01:38;4.63;;;4.27;;
297;SDS011;133;49.626;9.680;2022-11-15T06:04:05;6.70;;;5.10;;
297;SDS011;133;49.626;9.680;2022-11-15T06:06:30;5.80;;;5.40;;
297;SDS011;133;49.626;9.680;2022-11-15T06:08:56;6.50;;;5.40;;
297;SDS011;133;49.626;9.680;2022-11-15T06:11:22;5.60;;;5.30;;
297;SDS011;133;49.626;9.680;2022-11-15T06:13:47;7.23;;;6.23;;
297;SDS011;133;49.626;9.680;2022-11-15T06:16:13;8.00;;;6.57;;
297;SDS011;133;49.626;9.680;2022-11-15T06:18:39;6.57;;;6.10;;
297;SDS011;133;49.626;9.680;2022-11-15T06:21:04;7.00;;;5.90;;
297;SDS011;133;49.626;9.680;2022-11-15T06:23:31;8.33;;;6.63;;
297;SDS011;133;49.626;9.680;2022-11-15T06:26:00;7.30;;;6.30;;
297;SDS011;133;49.626;9.680;2022-11-15T06:28:28;7.17;;;6.50;;
297;SDS011;133;49.626;9.680;2022-11-15T06:30:54;8.53;;;6.00;;
297;SDS011;133;49.626;9.680;2022-11-15T06:33:20;8.33;;;6.13;;
297;SDS011;133;49.626;9.680;2022-11-15T06:35:46;8.50;;;7.00;;
297;SDS011;133;49.626;9.680;2022-11-15T06:38:11;8.77;;;6.60;;
297;SDS011;133;49.626;9.680;2022-11-15T06:40:37;6.67;;;6.27;;
297;SDS011;133;49.626;9.680;2022-11-15T06:43:04;7.77;;;6.07;;
297;SDS011;133;49.626;9.680;2022-11-15T06:45:31;5.70;;;5.00;;
297;SDS011;133;49.626;9.680;2022-11-15T06:47:58;7.97;;;5.87;;
297;SDS011;133;49.626;9.680;2022-11-15T06:50:24;13.53;;;9.07;;
297;SDS011;133;49.626;9.680;2022-11-15T06:52:50;21.73;;;12.50;;
297;SDS011;133;49.626;9.680;2022-11-15T06:55:16;20.63;;;13.17;;
297;SDS011;133;49.626;9.680;2022-11-15T06:57:51;12.40;;;9.03;;
297;SDS011;133;49.626;9.680;2022-11-15T07:00:18;9.60;;;8.40;;
297;SDS011;133;49.626;9.680;2022-11-15T07:02:45;10.47;;;8.53;;
297;SDS011;133;49.626;9.680;2022-11-15T07:05:11;12.60;;;9.87;;
297;SDS011;133;49.626;9.680;2022-11-15T07:07:38;11.23;;;8.67;;
297;SDS011;133;49.626;9.680;2022-11-15T07:10:03;14.30;;;8.87;;
297;SDS011;133;49.626;9.680;2022-11-15T07:12:31;9.23;;;7.90;;
297;SDS011;133;49.626;9.680;2022-11-15T07:14:57;11.83;;;9.57;;
297;SDS011;133;49.626;9.680;2022-11-15T07:17:22;13.17;;;8.80;;
297;SDS011;133;49.626;9.680;2022-11-15T07:19:48;10.17;;;8.23;;
297;SDS011;133;49.626;9.680;2022-11-15T07:22:14;14.00;;;10.97;;
297;SDS011;133;49.626;9.680;2022-11-15T07:24:39;12.00;;;9.23;;
297;SDS011;133;49.626;9.680;2022-11-15T07:27:05;24.27;;;13.87;;
297;SDS011;133;49.626;9.680;2022-11-15T07:29:31;15.23;;;10.20;;
297;SDS011;133;49.626;9.680;2022-11-15T07:31:56;15.43;;;10.53;;
297;SDS011;133;49.626;9.680;2022-11-15T07:34:22;12.80;;;8.87;;
297;SDS011;133;49.626;9.680;2022-11-15T07:36:48;10.33;;;7.97;;
297;SDS011;133;49.626;9.680;2022-11-15T07:39:14;10.60;;;8.30;;
297;SDS011;133;49.626;9.680;2022-11-15T07:41:39;14.77;;;9.33;;
297;SDS011;133;49.626;9.680;2022-11-15T07:44:05;12.27;;;7.47;;
297;SDS011;133;49.626;9.680;2022-11-15T07:46:31;10.80;;;8.33;;
297;SDS011;133;49.626;9.680;2022-11-15T07:48:58;11.33;;;8.93;;
297;SDS011;133;49.626;9.680;2022-11-15T07:51:24;9.83;;;8.17;;
297;SDS011;133;49.626;9.680;2022-11-15T07:53:49;9.30;;;8.37;;
297;SDS011;133;49.626;9.680;2022-11-15T07:56:15;13.20;;;9.53;;
297;SDS011;133;49.626;9.680;2022-11-15T07:58:41;15.30;;;11.10;;
297;SDS011;133;49.626;9.680;2022-11-15T08:01:07;15.97;;;11.83;;
297;SDS011;133;49.626;9.680;2022-11-15T08:03:35;23.77;;;14.20;;
297;SDS011;133;49.626;9.680;2022-11-15T08:06:00;36.27;;;20.53;;
297;SDS011;133;49.626;9.680;2022-11-15T08:08:26;20.67;;;13.50;;
297;SDS011;133;49.626;9.680;2022-11-15T08:10:52;21.17;;;13.33;;
297;SDS011;133;49.626;9.680;2022-11-15T08:13:17;15.53;;;11.33;;
297;SDS011;133;49.626;9.680;2022-11-15T08:15:43;15.67;;;10.93;;
297;SDS011;133;49.626;9.680;2022-11-15T08:18:10;23.30;;;15.30;;
297;SDS011;133;49.626;9.680;2022-11-15T08:20:40;13.80;;;9.20;;
297;SDS011;133;49.626;9.680;2022-11-15T08:23:06;10.23;;;7.30;;
297;SDS011;133;49.626;9.680;2022-11-15T08:25:33;9.57;;;7.07;;
297;SDS011;133;49.626;9.680;2022-11-15T08:28:01;12.07;;;7.17;;
297;SDS011;133;49.626;9.680;2022-11-15T08:30:29;7.77;;;7.20;;
297;SDS011;133;49.626;9.680;2022-11-15T08:32:56;8.20;;;6.97;;
297;SDS011;133;49.626;9.680;2022-11-15T08:35:22;9.90;;;7.40;;
297;SDS011;133;49.626;9.680;2022-11-15T08:37:48;11.33;;;7.73;;
297;SDS011;133;49.626;9.680;2022-11-15T08:40:14;10.13;;;8.13;;
297;SDS011;133;49.626;9.680;2022-11-15T08:42:40;9.37;;;6.60;;
297;SDS011;133;49.626;9.680;2022-11-15T08:45:07;7.40;;;7.00;;
297;SDS011;133;49.626;9.680;2022-11-15T08:47:33;13.50;;;8.40;;
297;SDS011;133;49.626;9.680;2022-11-15T08:49:59;13.00;;;9.60;;
297;SDS011;133;49.626;9.680;2022-11-15T08:52:25;10.60;;;8.30;;
297;SDS011;133;49.626;9.680;2022-11-15T08:54:51;28.87;;;14.53;;
297;SDS011;133;49.626;9.680;2022-11-15T08:57:16;19.10;;;11.37;;
297;SDS011;133;49.626;9.680;2022-11-15T08:59:42;10.60;;;8.47;;
297;SDS011;133;49.626;9.680;2022-11-15T09:02:12;8.30;;;7.80;;
297;SDS011;133;49.626;9.680;2022-11-15T09:04:40;9.57;;;8.23;;
297;SDS011;133;49.626;9.680;2022-11-15T09:07:07;8.77;;;7.20;;
297;SDS011;133;49.626;9.680;2022-11-15T09:09:33;11.83;;;8.33;;
297;SDS011;133;49.626;9.680;2022-11-15T09:11:59;9.03;;;6.70;;
297;SDS011;133;49.626;9.680;2022-11-15T09:14:24;8.50;;;7.73;;
297;SDS011;133;49.626;9.680;2022-11-15T09:16:50;10.27;;;7.87;;
297;SDS011;133;49.626;9.680;2022-11-15T09:19:15;10.17;;;9.00;;
297;SDS011;133;49.626;9.680;2022-11-15T09:21:41;9.83;;;7.97;;
297;SDS011;133;49.626;9.680;2022-11-15T09:24:06;9.30;;;8.00;;
297;SDS011;133;49.626;9.680;2022-11-15T09:26:33;10.90;;;7.67;;
297;SDS011;133;49.626;9.680;2022-11-15T09:28:59;11.83;;;8.03;;
297;SDS011;133;49.626;9.680;2022-11-15T09:31:26;12.97;;;9.03;;
297;SDS011;133;49.626;9.680;2022-11-15T09:33:52;8.27;;;7.67;;
297;SDS011;133;49.626;9.680;2022-11-15T09:36:17;8.83;;;7.63;;
297;SDS011;133;49.626;9.680;2022-11-15T09:38:43;7.83;;;7.23;;
297;SDS011;133;49.626;9.680;2022-11-15T09:49:38;10.00;;;6.97;;
297;SDS011;133;49.626;9.680;2022-11-15T09:52:04;9.00;;;6.87;;
297;SDS011;133;49.626;9.680;2022-11-15T09:54:36;8.00;;;6.37;;
297;SDS011;133;49.626;9.680;2022-11-15T10:05:12;8.63;;;6.53;;
297;SDS011;133;49.626;9.680;2022-11-15T10:07:48;7.57;;;6.80;;
297;SDS011;133;49.626;9.680;2022-11-15T10:10:30;6.63;;;5.90;;
297;SDS011;133;49.626;9.680;2022-11-15T10:13:04;12.33;;;6.30;;
297;SDS011;133;49.626;9.680;2022-11-15T10:15:34;6.63;;;6.00;;
297;SDS011;133;49.626;9.680;2022-11-15T10:20:31;7.67;;;5.30;;
297;SDS011;133;49.626;9.680;2022-11-15T10:23:22;5.90;;;5.60;;
297;SDS011;133;49.626;9.680;2022-11-15T10:25:50;6.57;;;5.47;;
297;SDS011;133;49.626;9.680;2022-11-15T10:28:26;9.83;;;6.27;;
297;SDS011;133;49.626;9.680;2022-11-15T10:30:54;7.53;;;5.83;;
297;SDS011;133;49.626;9.680;2022-11-15T10:33:24;6.70;;;5.50;;
297;SDS011;133;49.626;9.680;2022-11-15T10:41:18;9.23;;;5.67;;
297;SDS011;133;49.626;9.680;2022-11-15T10:46:27;6.43;;;5.93;;
297;SDS011;133;49.626;9.680;2022-11-15T10:48:52;7.57;;;6.10;;
297;SDS011;133;49.626;9.680;2022-11-15T10:51:39;7.87;;;6.60;;
297;SDS011;133;49.626;9.680;2022-11-15T10:54:28;8.10;;;6.03;;
297;SDS011;133;49.626;9.680;2022-11-15T10:57:16;8.57;;;5.80;;
297;SDS011;133;49.626;9.680;2022-11-15T10:59:50;9.03;;;6.20;;
297;SDS011;133;49.626;9.680;2022-11-15T11:02:26;7.30;;;5.93;;
297;SDS011;133;49.626;9.680;2022-11-15T11:04:57;9.67;;;6.83;;
297;SDS011;133;49.626;9.680;2022-11-15T11:07:25;9.60;;;7.30;;
297;SDS011;133;49.626;9.680;2022-11-15T11:10:02;7.20;;;6.83;;
297;SDS011;133;49.626;9.680;2022-11-15T11:12:31;7.33;;;6.53;;
297;SDS011;133;49.626;9.680;2022-11-15T11:14:59;8.63;;;6.20;;
297;SDS011;133;49.626;9.680;2022-11-15T11:17:32;9.67;;;6.70;;
297;SDS011;133;49.626;9.680;2022-11-15T11:20:28;7.93;;;6.20;;
297;SDS011;133;49.626;9.680;2022-11-15T11:28:51;9.07;;;6.50;;
297;SDS011;133;49.626;9.680;2022-11-15T11:31:34;10.00;;;7.20;;
297;SDS011;133;49.626;9.680;2022-11-15T11:37:19;8.70;;;6.67;;
297;SDS011;133;49.626;9.680;2022-11-15T11:51:19;9.20;;;7.07;;
297;SDS011;133;49.626;9.680;2022-11-15T11:56:28;10.40;;;7.30;;
297;SDS011;133;49.626;9.680;2022-11-15T11:59:02;9.20;;;7.53;;
297;SDS011;133;49.626;9.680;2022-11-15T12:01:52;9.10;;;7.10;;
297;SDS011;133;49.626;9.680;2022-11-15T12:04:24;6.93;;;6.60;;
297;SDS011;133;49.626;9.680;2022-11-15T12:12:41;52.50;;;27.60;;
297;SDS011;133;49.626;9.680;2022-11-15T12:15:19;25.07;;;16.60;;
297;SDS011;133;49.626;9.680;2022-11-15T12:18:01;17.47;;;10.07;;
297;SDS011;133;49.626;9.680;2022-11-15T12:20:28;9.60;;;7.37;;
297;SDS011;133;49.626;9.680;2022-11-15T12:22:59;9.40;;;7.80;;
297;SDS011;133;49.626;9.680;2022-11-15T12:25:46;27.83;;;15.40;;
297;SDS011;133;49.626;9.680;2022-11-15T12:28:25;17.30;;;11.30;;
297;SDS011;133;49.626;9.680;2022-11-15T12:31:21;11.73;;;8.03;;
297;SDS011;133;49.626;9.680;2022-11-15T12:34:00;12.47;;;8.50;;
297;SDS011;133;49.626;9.680;2022-11-15T12:36:39;17.03;;;9.93;;
297;SDS011;133;49.626;9.680;2022-11-15T12:39:08;16.50;;;9.87;;
297;SDS011;133;49.626;9.680;2022-11-15T12:41:36;12.77;;;9.33;;
297;SDS011;133;49.626;9.680;2022-11-15T12:44:10;16.60;;;14.33;;
297;SDS011;133;49.626;9.680;2022-11-15T13:17:44;16.43;;;11.83;;
297;SDS011;133;49.626;9.680;2022-11-15T13:27:55;15.03;;;11.43;;
297;SDS011;133;49.626;9.680;2022-11-15T13:30:26;16.87;;;8.57;;
297;SDS011;133;49.626;9.680;2022-11-15T13:32:53;12.53;;;7.40;;
297;SDS011;133;49.626;9.680;2022-11-15T13:35:21;9.53;;;6.47;;
297;SDS011;133;49.626;9.680;2022-11-15T13:37:49;12.60;;;7.30;;
297;SDS011;133;49.626;9.680;2022-11-15T13:40:19;6.53;;;5.80;;
297;SDS011;133;49.626;9.680;2022-11-15T13:42:55;8.53;;;6.13;;
297;SDS011;133;49.626;9.680;2022-11-15T13:45:22;10.93;;;6.00;;
297;SDS011;133;49.626;9.680;2022-11-15T13:47:51;8.40;;;6.13;;
297;SDS011;133;49.626;9.680;2022-11-15T13:50:19;8.90;;;6.10;;
297;SDS011;133;49.626;9.680;2022-11-15T13:52:48;8.13;;;6.13;;
297;SDS011;133;49.626;9.680;2022-11-15T13:55:23;8.23;;;6.33;;
297;SDS011;133;49.626;9.680;2022-11-15T13:57:54;7.63;;;6.37;;
297;SDS011;133;49.626;9.680;2022-11-15T14:00:33;7.97;;;6.40;;
297;SDS011;133;49.626;9.680;2022-11-15T14:03:25;13.77;;;9.60;;
297;SDS011;133;49.626;9.680;2022-11-15T14:08:35;10.27;;;5.90;;
297;SDS011;133;49.626;9.680;2022-11-15T14:11:08;11.10;;;7.37;;
297;SDS011;133;49.626;9.680;2022-11-15T14:16:33;19.53;;;9.07;;
297;SDS011;133;49.626;9.680;2022-11-15T14:19:06;10.57;;;7.63;;
297;SDS011;133;49.626;9.680;2022-11-15T14:21:34;12.90;;;7.33;;
297;SDS011;133;49.626;9.680;2022-11-15T14:24:16;9.13;;;5.93;;
297;SDS011;133;49.626;9.680;2022-11-15T14:26:44;7.33;;;5.43;;
297;SDS011;133;49.626;9.680;2022-11-15T14:31:47;7.57;;;6.10;;
297;SDS011;133;49.626;9.680;2022-11-15T14:34:13;8.50;;;5.80;;
297;SDS011;133;49.626;9.680;2022-11-15T14:36:38;7.83;;;6.30;;
297;SDS011;133;49.626;9.680;2022-11-15T14:39:04;8.03;;;5.97;;
297;SDS011;133;49.626;9.680;2022-11-15T14:41:33;6.40;;;6.00;;
297;SDS011;133;49.626;9.680;2022-11-15T14:44:02;6.40;;;6.00;;
297;SDS011;133;49.626;9.680;2022-11-15T14:46:28;6.90;;;5.70;;
297;SDS011;133;49.626;9.680;2022-11-15T14:48:54;11.63;;;7.80;;
297;SDS011;133;49.626;9.680;2022-11-15T14:51:19;12.17;;;10.47;;
297;SDS011;133;49.626;9.680;2022-11-15T14:53:45;9.07;;;7.20;;
297;SDS011;133;49.626;9.680;2022-11-15T14:56:12;7.57;;;5.73;;
297;SDS011;133;49.626;9.680;2022-11-15T14:58:38;8.47;;;6.80;;
297;SDS011;133;49.626;9.680;2022-11-15T15:03:37;5.13;;;4.83;;
297;SDS011;133;49.626;9.680;2022-11-15T15:06:03;6.70;;;5.37;;
297;SDS011;133;49.626;9.680;2022-11-15T15:08:29;9.47;;;5.23;;
297;SDS011;133;49.626;9.680;2022-11-15T15:10:55;4.77;;;4.50;;
297;SDS011;133;49.626;9.680;2022-11-15T15:13:22;6.40;;;5.30;;
297;SDS011;133;49.626;9.680;2022-11-15T15:15:49;7.47;;;5.20;;
297;SDS011;133;49.626;9.680;2022-11-15T15:18:16;8.20;;;5.07;;
297;SDS011;133;49.626;9.680;2022-11-15T15:20:43;9.30;;;5.63;;
297;SDS011;133;49.626;9.680;2022-11-15T15:23:17;8.30;;;5.70;;
297;SDS011;133;49.626;9.680;2022-11-15T15:25:43;14.40;;;9.07;;
297;SDS011;133;49.626;9.680;2022-11-15T15:28:10;15.33;;;11.00;;
297;SDS011;133;49.626;9.680;2022-11-15T15:30:36;18.97;;;12.23;;
297;SDS011;133;49.626;9.680;2022-11-15T15:33:02;22.13;;;13.27;;
297;SDS011;133;49.626;9.680;2022-11-15T15:35:29;28.73;;;18.00;;
297;SDS011;133;49.626;9.680;2022-11-15T15:37:57;19.80;;;14.60;;
297;SDS011;133;49.626;9.680;2022-11-15T15:40:24;20.20;;;14.17;;
297;SDS011;133;49.626;9.680;2022-11-15T15:42:50;17.13;;;11.90;;
297;SDS011;133;49.626;9.680;2022-11-15T15:45:17;16.00;;;10.43;;
297;SDS011;133;49.626;9.680;2022-11-15T15:47:43;11.67;;;9.50;;
297;SDS011;133;49.626;9.680;2022-11-15T15:50:22;14.37;;;10.07;;
297;SDS011;133;49.626;9.680;2022-11-15T15:52:53;12.40;;;9.50;;
297;SDS011;133;49.626;9.680;2022-11-15T15:55:21;13.87;;;9.00;;
297;SDS011;133;49.626;9.680;2022-11-15T15:57:47;10.87;;;8.90;;
297;SDS011;133;49.626;9.680;2022-11-15T16:00:13;10.90;;;9.00;;
297;SDS011;133;49.626;9.680;2022-11-15T16:02:40;10.57;;;9.13;;
297;SDS011;133;49.626;9.680;2022-11-15T16:05:06;12.07;;;9.20;;
297;SDS011;133;49.626;9.680;2022-11-15T16:07:33;12.00;;;8.10;;
297;SDS011;133;49.626;9.680;2022-11-15T16:09:58;9.00;;;7.60;;
297;SDS011;133;49.626;9.680;2022-11-15T16:14:58;14.70;;;6.90;;
297;SDS011;133;49.626;9.680;2022-11-15T16:17:25;8.37;;;7.13;;
297;SDS011;133;49.626;9.680;2022-11-15T16:19:55;8.13;;;6.67;;
297;SDS011;133;49.626;9.680;2022-11-15T16:22:20;9.00;;;5.80;;
297;SDS011;133;49.626;9.680;2022-11-15T16:24:46;6.63;;;5.10;;
297;SDS011;133;49.626;9.680;2022-11-15T16:27:15;5.50;;;5.23;;
297;SDS011;133;49.626;9.680;2022-11-15T16:29:44;5.13;;;4.80;;
297;SDS011;133;49.626;9.680;2022-11-15T16:32:11;7.53;;;5.07;;
297;SDS011;133;49.626;9.680;2022-11-15T16:34:37;5.77;;;4.33;;
297;SDS011;133;49.626;9.680;2022-11-15T16:37:03;6.30;;;5.00;;
297;SDS011;133;49.626;9.680;2022-11-15T16:39:29;7.07;;;6.10;;
297;SDS011;133;49.626;9.680;2022-11-15T16:41:56;20.10;;;12.00;;
297;SDS011;133;49.626;9.680;2022-11-15T16:44:22;11.47;;;8.73;;
297;SDS011;133;49.626;9.680;2022-11-15T16:46:48;15.40;;;9.37;;
297;SDS011;133;49.626;9.680;2022-11-15T16:49:16;28.83;;;19.13;;
297;SDS011;133;49.626;9.680;2022-11-15T16:51:44;41.63;;;26.60;;
297;SDS011;133;49.626;9.680;2022-11-15T16:54:11;37.20;;;24.00;;
297;SDS011;133;49.626;9.680;2022-11-15T16:56:39;22.13;;;15.73;;
297;SDS011;133;49.626;9.680;2022-11-15T16:59:05;17.50;;;12.40;;
297;SDS011;133;49.626;9.680;2022-11-15T17:01:32;17.83;;;11.40;;
297;SDS011;133;49.626;9.680;2022-11-15T17:04:10;14.37;;;11.20;;
297;SDS011;133;49.626;9.680;2022-11-15T17:06:37;11.00;;;8.07;;
297;SDS011;133;49.626;9.680;2022-11-15T17:09:04;6.70;;;5.80;;
297;SDS011;133;49.626;9.680;2022-11-15T17:11:29;5.47;;;5.03;;
297;SDS011;133;49.626;9.680;2022-11-15T17:13:58;10.23;;;6.40;;
297;SDS011;133;49.626;9.680;2022-11-15T17:16:24;9.63;;;7.03;;
297;SDS011;133;49.626;9.680;2022-11-15T17:18:50;7.50;;;6.50;;
297;SDS011;133;49.626;9.680;2022-11-15T17:21:16;7.93;;;6.07;;
297;SDS011;133;49.626;9.680;2022-11-15T17:23:44;5.10;;;4.67;;
297;SDS011;133;49.626;9.680;2022-11-15T17:26:10;5.33;;;4.87;;
297;SDS011;133;49.626;9.680;2022-11-15T17:28:37;6.30;;;5.60;;
297;SDS011;133;49.626;9.680;2022-11-15T17:31:07;6.60;;;6.17;;
297;SDS011;133;49.626;9.680;2022-11-15T17:33:37;5.93;;;5.63;;
297;SDS011;133;49.626;9.680;2022-11-15T17:36:05;5.40;;;5.10;;
297;SDS011;133;49.626;9.680;2022-11-15T17:38:32;7.33;;;5.00;;
297;SDS011;133;49.626;9.680;2022-11-15T17:41:02;6.20;;;5.50;;
297;SDS011;133;49.626;9.680;2022-11-15T17:43:34;6.73;;;5.63;;
297;SDS011;133;49.626;9.680;2022-11-15T17:46:03;10.33;;;7.77;;
297;SDS011;133;49.626;9.680;2022-11-15T17:48:30;12.60;;;9.77;;
297;SDS011;133;49.626;9.680;2022-11-15T17:50:57;12.67;;;9.77;;
297;SDS011;133;49.626;9.680;2022-11-15T17:53:30;14.60;;;11.90;;
297;SDS011;133;49.626;9.680;2022-11-15T17:56:04;11.67;;;9.97;;
297;SDS011;133;49.626;9.680;2022-11-15T17:58:34;12.53;;;8.73;;
297;SDS011;133;49.626;9.680;2022-11-15T18:03:42;7.00;;;6.40;;
297;SDS011;133;49.626;9.680;2022-11-15T18:06:09;7.57;;;6.90;;
297;SDS011;133;49.626;9.680;2022-11-15T18:08:36;7.73;;;7.17;;
297;SDS011;133;49.626;9.680;2022-11-15T18:13:43;6.77;;;6.37;;